Tarryall, Colorado
Current Conditions -  °F | °C
As of 12:14 PM on Monday 22 Dec 2014 (Local Time) from K4BM Reporting Station
Light Snow Light Snow  
Wind Chill:   Ceiling: 600
Heat Index: 18°   Visibility: 1mi
Dew Point: 14°   Wind: 10mph
Humidity: 86%   Direction: 340°NNW
Pressure: 29.69"   Gusts: 21mph
Location:  39.1071°N, 105.506°W
Report Text: K4BM 221914Z AUTO 34009G18KT 300V080 1SM -SN OVC006 M08/M10 A2969 RMK AO2
Loading
Personal Weather Stations






























Interactive Weather Map New forecast layout! Learn more

10-Day Weather Forecast

Advertisements
Track Severe Weather on mobile